ADDS METAR Data INFO
IDs: Format: Raw Decoded Include TAF

Data at: 0352 UTC 18 Oct 2017

KGPZ 180256Z AUTO 17010KT 10SM CLR 14/04 A2981 RMK AO2 SLP099 T01390044 58010
KGPZ 180156Z AUTO 17008KT 10SM CLR 14/04 A2982 RMK AO2 SLP107 T01440039
KGPZ 180056Z AUTO 17008KT 10SM CLR 15/04 A2983 RMK AO2 SLP111 T01500039
KGPZ 172356Z AUTO 17007KT 10SM CLR 16/04 A2984 RMK AO2 SLP113 T01610039 10206 20161 56016
KGPZ 172256Z AUTO 18007KT 10SM CLR 18/04 A2985 RMK AO2 SLP113 T01830039
KGPZ 172156Z AUTO 21006KT 10SM CLR 20/04 A2987 RMK AO2 SLP121 T02000039
KGPZ 172056Z AUTO 24007KT 10SM CLR 21/03 A2989 RMK AO2 SLP125 T02060033 56019
KGPZ 171956Z AUTO 22012G16KT 10SM CLR 20/02 A2990 RMK AO2 SLP128 T02000022
KGPZ 171856Z AUTO 19012KT 10SM CLR 19/03 A2992 RMK AO2 SLP134 T01940028
KGPZ 171756Z AUTO 18012KT 10SM CLR 19/03 A2995 RMK AO2 SLP143 T01890033 10189 20022 56012
KGPZ 171656Z AUTO 20010G18KT 10SM CLR 17/04 A2995 RMK AO2 SLP146 T01720039
KGPZ 171556Z AUTO 19010KT 10SM CLR 15/04 A2997 RMK AO2 SLP151 T01500044
KGPZ 171456Z AUTO 16004KT 10SM CLR 11/06 A2998 RMK AO2 SLP158 T01110056 53005
KGPZ 171356Z AUTO 18003KT 10SM CLR 06/04 A2998 RMK AO2 SLP160 T00610039
KGPZ 171256Z AUTO 15003KT 10SM CLR 02/02 A2997 RMK AO2 SLP158 T00220017 FZRANO
KGPZ 171156Z AUTO 16005KT 10SM CLR 03/02 A2997 RMK AO2 SLP157 T00280017 10117 20028 50010
KGPZ 171056Z AUTO 00000KT 10SM CLR 04/02 A2997 RMK AO2 SLP157 T00390022
KGPZ 170956Z AUTO 00000KT 10SM CLR 05/02 A2995 RMK AO2 SLP151 T00500022
KGPZ 170856Z AUTO 00000KT 10SM CLR 07/03 A2993 RMK AO2 SLP143 T00720028 51008
KGPZ 170756Z AUTO 29003KT 10SM CLR 08/03 A2993 RMK AO2 SLP141 T00830033
KGPZ 170656Z AUTO 27006KT 10SM CLR 12/04 A2992 RMK AO2 SLP138 T01170039
KGPZ 170556Z AUTO 27004KT 10SM CLR 12/04 A2991 RMK AO2 SLP133 T01170039 10144 20117 401610006 51009
KGPZ 170456Z AUTO 24004KT 10SM CLR 12/04 A2990 RMK AO2 SLP130 T01220039
KGPZ 170356Z AUTO 25004KT 10SM CLR 13/04 A2990 RMK AO2 SLP130 T01330039
KGPZ 170256Z AUTO 20006KT 10SM CLR 13/03 A2988 RMK AO2 SLP126 T01280033 56005
KGPZ 170156Z AUTO 20005KT 10SM CLR 12/03 A2988 RMK AO2 SLP128 T01220033
KGPZ 170056Z AUTO 19008KT 10SM CLR 13/03 A2989 RMK AO2 SLP132 T01280028
KGPZ 162356Z AUTO 20009KT 10SM CLR 14/03 A2990 RMK AO2 SLP133 T01440028 10161 20133 56010
KGPZ 162256Z AUTO 21008KT 10SM CLR 16/02 A2990 RMK AO2 SLP134 T01560017
KGPZ 162156Z AUTO 19014G20KT 10SM CLR 16/01 A2990 RMK AO2 SLP134 T01610011
KGPZ 162056Z AUTO 20013G20KT 10SM CLR 16/01 A2993 RMK AO2 SLP142 T01560011 58041
KGPZ 161956Z AUTO 21010G16KT 10SM CLR 16/02 A2997 RMK AO2 SLP157 T01610017
KGPZ 161856Z AUTO 25009G17KT 210V330 10SM CLR 15/01 A3002 RMK AO2 SLP175 T01500006
KGPZ 161756Z AUTO 21009G16KT 10SM CLR 13/01 A3005 RMK AO2 SLP186 T01330011 10133 20006 58021
KGPZ 161656Z AUTO 22009G16KT 10SM CLR 12/01 A3009 RMK AO2 SLP198 T01220011
KGPZ 161556Z AUTO 22009G14KT 10SM CLR 10/02 A3010 RMK AO2 SLP205 T01000017